Time;durP1;ratioP1;P1;durP2;ratioP2;P2;SDS_P1;SDS_P2;PMS_P1;PMS_P2;Temp;Humidity;BMP_temperature;BMP_pressure;BME280_temperature;BME280_humidity;BME280_pressure;Samples;Min_cycle;Max_cycle;Signal;HPM_P1;HPM_P2
2023/05/05 00:01:36;;;;;;;5.93;2.30;;;;;;;10.08;100.00;101981.38;5026368;28;20419;-70
2023/05/05 00:04:02;;;;;;;8.47;2.50;;;;;;;10.05;100.00;101981.22;5013445;28;20198;-69
2023/05/05 00:06:28;;;;;;;6.33;2.77;;;;;;;10.04;100.00;101981.16;5029398;28;20183;-69
2023/05/05 00:08:54;;;;;;;5.77;2.30;;;;;;;10.02;100.00;101988.78;5020427;28;20874;-69
2023/05/05 00:11:19;;;;;;;6.47;2.43;;;;;;;9.98;100.00;101986.00;5025372;28;20214;-71
2023/05/05 00:13:45;;;;;;;7.17;2.70;;;;;;;9.89;100.00;101999.31;5027171;28;20194;-70
2023/05/05 00:16:11;;;;;;;9.10;3.20;;;;;;;9.93;100.00;101993.53;5008546;28;20301;-71
2023/05/05 00:18:36;;;;;;;7.80;2.63;;;;;;;9.92;100.00;101990.91;5016512;28;20277;-71
2023/05/05 00:21:03;;;;;;;7.00;2.50;;;;;;;9.89;100.00;101985.63;5023650;28;20211;-70
2023/05/05 00:23:28;;;;;;;4.93;2.50;;;;;;;9.83;100.00;102004.19;5022275;28;20190;-70
2023/05/05 00:25:54;;;;;;;8.50;2.93;;;;;;;9.86;100.00;102006.00;5021431;28;20198;-70
2023/05/05 00:28:19;;;;;;;7.53;2.53;;;;;;;9.82;100.00;102006.69;5022137;28;20313;-70
2023/05/05 00:30:45;;;;;;;4.53;2.20;;;;;;;9.75;100.00;102007.22;5010029;28;20317;-70
2023/05/05 00:33:11;;;;;;;6.77;2.60;;;;;;;9.79;100.00;102002.31;5018233;28;20218;-70
2023/05/05 00:35:36;;;;;;;9.43;2.67;;;;;;;9.79;100.00;102009.09;5010104;28;20249;-70
2023/05/05 00:38:03;;;;;;;7.40;2.43;;;;;;;9.78;100.00;102015.94;5003348;28;20298;-70
2023/05/05 00:40:30;;;;;;;8.07;2.67;;;;;;;9.69;100.00;102024.88;5026365;28;20217;-70
2023/05/05 00:42:55;;;;;;;6.57;2.80;;;;;;;9.69;100.00;102023.22;5018674;28;20199;-70
2023/05/05 00:45:21;;;;;;;6.10;2.57;;;;;;;9.71;100.00;102016.47;5024706;28;20292;-69
2023/05/05 00:47:50;;;;;;;6.30;2.50;;;;;;;9.69;100.00;102017.22;5019166;28;20195;-70
2023/05/05 00:50:27;;;;;;;4.00;2.30;;;;;;;9.61;100.00;102029.69;5006613;28;20215;-70
2023/05/05 00:52:56;;;;;;;5.83;2.70;;;;;;;9.59;100.00;102040.66;5021114;28;20277;-71
2023/05/05 00:55:21;;;;;;;9.90;2.83;;;;;;;9.57;100.00;102050.81;5021016;28;20221;-70
2023/05/05 00:57:47;;;;;;;5.90;2.53;;;;;;;9.59;100.00;102044.06;5008184;28;20230;-71
2023/05/05 01:00:13;;;;;;;8.93;2.70;;;;;;;9.60;100.00;102048.41;5011828;28;20225;-70
2023/05/05 01:02:40;;;;;;;6.43;2.30;;;;;;;9.57;100.00;102052.50;5019501;28;20643;-70
2023/05/05 01:05:07;;;;;;;9.53;2.60;;;;;;;9.54;100.00;102054.94;5010346;28;20195;-69
2023/05/05 01:07:35;;;;;;;9.27;2.87;;;;;;;9.49;100.00;102064.94;5025059;28;20229;-69
2023/05/05 01:10:42;;;;;;;7.70;2.80;;;;;;;9.56;100.00;102061.88;5007217;28;20281;-72
2023/05/05 01:13:35;;;;;;;4.87;2.27;;;;;;;9.50;100.00;102073.50;5001547;28;20220;-71
2023/05/05 01:16:13;;;;;;;6.83;2.63;;;;;;;9.47;100.00;102083.59;5019134;28;20210;-71
2023/05/05 01:19:05;;;;;;;9.70;2.73;;;;;;;9.43;100.00;102091.94;5011925;28;20280;-70
2023/05/05 01:21:48;;;;;;;6.73;2.57;;;;;;;9.43;100.00;102082.59;5023691;28;20223;-71
2023/05/05 01:24:44;;;;;;;9.17;2.80;;;;;;;9.43;100.00;102069.81;5024455;28;20243;-71
2023/05/05 01:27:38;;;;;;;6.07;2.73;;;;;;;9.44;100.00;102074.09;5006150;28;20644;-70
2023/05/05 01:30:27;;;;;;;5.80;2.60;;;;;;;9.40;100.00;102090.09;5019928;28;20297;-70
2023/05/05 01:32:59;;;;;;;7.80;2.63;;;;;;;9.39;100.00;102090.03;5001288;28;20249;-71
2023/05/05 01:35:31;;;;;;;9.20;2.80;;;;;;;9.36;100.00;102095.88;5015687;28;20238;-70
2023/05/05 01:37:57;;;;;;;5.77;2.57;;;;;;;9.40;100.00;102105.44;5026492;28;20190;-70
2023/05/05 01:40:27;;;;;;;9.93;3.23;;;;;;;9.39;100.00;102113.03;5026329;28;20790;-71
2023/05/05 01:42:54;;;;;;;7.27;2.40;;;;;;;9.35;100.00;102114.59;5009457;28;20286;-71
2023/05/05 01:45:23;;;;;;;9.53;2.60;;;;;;;9.33;100.00;102128.13;5024948;28;20226;-70
2023/05/05 01:47:51;;;;;;;7.53;2.67;;;;;;;9.31;100.00;102122.94;5006763;28;20183;-71
2023/05/05 01:50:17;;;;;;;7.87;3.03;;;;;;;9.29;100.00;102132.22;5024959;28;20272;-70
2023/05/05 01:52:44;;;;;;;9.13;3.10;;;;;;;9.27;100.00;102131.25;5017889;28;20626;-70
2023/05/05 01:55:11;;;;;;;6.90;2.63;;;;;;;9.24;100.00;102122.59;5024123;28;20229;-70
2023/05/05 01:57:38;;;;;;;7.53;2.67;;;;;;;9.26;100.00;102121.84;5021909;28;20214;-70
2023/05/05 02:00:06;;;;;;;8.30;3.00;;;;;;;9.28;100.00;102117.69;5001252;28;20573;-70
2023/05/05 02:02:41;;;;;;;5.67;2.73;;;;;;;9.21;100.00;102118.22;5018660;28;20256;-70
2023/05/05 02:05:08;;;;;;;7.33;2.87;;;;;;;9.18;100.00;102127.44;5020985;28;20282;-70
2023/05/05 02:07:34;;;;;;;8.23;2.77;;;;;;;9.13;100.00;102137.44;5005362;28;20273;-70
2023/05/05 02:10:01;;;;;;;5.53;2.90;;;;;;;9.13;100.00;102134.03;5008163;28;20215;-70
2023/05/05 02:12:29;;;;;;;5.00;2.77;;;;;;;9.10;100.00;102127.09;5010830;28;20655;-70
2023/05/05 02:14:58;;;;;;;12.07;3.37;;;;;;;9.08;100.00;102138.91;5005727;28;20206;-70
2023/05/05 02:17:25;;;;;;;7.67;2.93;;;;;;;9.06;100.00;102134.53;5016513;28;20730;-69
2023/05/05 02:19:53;;;;;;;6.17;2.70;;;;;;;9.06;100.00;102137.09;5021473;28;20913;-70
2023/05/05 02:22:19;;;;;;;6.27;3.37;;;;;;;8.95;100.00;102148.50;5020537;28;20191;-71
2023/05/05 02:24:44;;;;;;;7.90;2.90;;;;;;;9.00;100.00;102144.47;5005036;28;20198;-70
2023/05/05 02:27:11;;;;;;;6.97;2.80;;;;;;;9.03;100.00;102140.38;5023325;28;20238;-71
2023/05/05 02:29:49;;;;;;;7.67;2.70;;;;;;;8.99;100.00;102148.69;5021667;28;20209;-70
2023/05/05 02:32:26;;;;;;;12.57;2.83;;;;;;;8.98;100.00;102144.41;5020010;28;20467;-70
2023/05/05 02:34:56;;;;;;;8.27;2.70;;;;;;;8.95;100.00;102135.72;5004093;28;20190;-69
2023/05/05 02:37:26;;;;;;;13.50;3.00;;;;;;;8.94;100.00;102136.53;5025183;28;20593;-69
2023/05/05 02:40:01;;;;;;;5.87;2.87;;;;;;;8.95;100.00;102136.63;5008178;28;20715;-69
2023/05/05 02:42:37;;;;;;;5.73;2.67;;;;;;;8.93;100.00;102133.09;5010061;28;20229;-71
2023/05/05 02:45:11;;;;;;;7.53;3.07;;;;;;;8.91;100.00;102134.72;5014935;28;20201;-71
2023/05/05 02:47:39;;;;;;;8.87;2.93;;;;;;;8.91;100.00;102134.72;5007720;28;20527;-70
2023/05/05 02:50:06;;;;;;;9.07;3.00;;;;;;;8.83;100.00;102136.03;4998638;28;20242;-71
2023/05/05 02:52:34;;;;;;;7.50;3.00;;;;;;;8.85;100.00;102138.66;5002479;28;20662;-71
2023/05/05 02:55:00;;;;;;;6.07;2.70;;;;;;;8.82;100.00;102139.41;5018181;28;20186;-70
2023/05/05 02:57:41;;;;;;;6.77;3.00;;;;;;;8.82;100.00;102134.28;5008335;28;20225;-70
2023/05/05 03:00:17;;;;;;;7.17;2.83;;;;;;;8.81;100.00;102124.00;5013937;28;20210;-70
2023/05/05 03:03:05;;;;;;;6.50;3.10;;;;;;;8.83;100.00;102115.59;5004262;28;20280;-70
2023/05/05 03:05:42;;;;;;;8.07;2.93;;;;;;;8.81;100.00;102111.22;5005098;28;20281;-70
2023/05/05 03:08:35;;;;;;;7.17;2.50;;;;;;;8.78;100.00;102108.50;5000617;28;20817;-69
2023/05/05 03:11:05;;;;;;;5.93;2.93;;;;;;;8.79;100.00;102105.16;5021148;28;20222;-70
2023/05/05 03:13:36;;;;;;;7.70;3.00;;;;;;;8.76;100.00;102111.00;5017372;28;20200;-70
2023/05/05 03:16:05;;;;;;;6.87;2.70;;;;;;;8.76;100.00;102100.78;5003314;28;20218;-71
2023/05/05 03:18:33;;;;;;;7.80;2.93;;;;;;;8.79;100.00;102092.38;5005988;28;20201;-70
2023/05/05 03:21:07;;;;;;;10.57;3.10;;;;;;;8.77;100.00;102096.56;5009576;28;20242;-70
2023/05/05 03:23:33;;;;;;;8.37;3.40;;;;;;;8.76;100.00;102100.78;5006166;28;20620;-70
2023/05/05 03:25:59;;;;;;;6.70;3.33;;;;;;;8.76;100.00;102082.91;5005716;28;20819;-70
2023/05/05 03:28:34;;;;;;;6.60;3.10;;;;;;;8.74;100.00;102092.19;5024517;28;20203;-70
2023/05/05 03:31:06;;;;;;;6.73;2.60;;;;;;;8.73;100.00;102081.88;5012504;28;20207;-70
2023/05/05 03:33:34;;;;;;;7.70;2.60;;;;;;;8.77;100.00;102074.47;5005540;28;20690;-70
2023/05/05 03:36:00;;;;;;;6.33;2.90;;;;;;;8.76;100.00;102061.63;5008605;28;20293;-70
2023/05/05 03:38:25;;;;;;;6.40;2.90;;;;;;;8.79;100.00;102047.31;5008302;28;20918;-70
2023/05/05 03:40:52;;;;;;;7.70;3.07;;;;;;;8.80;100.00;102043.94;5006026;28;20214;-69
2023/05/05 03:43:20;;;;;;;6.17;3.30;;;;;;;8.82;100.00;102033.81;5006831;28;20202;-70
2023/05/05 03:45:46;;;;;;;6.40;3.33;;;;;;;8.84;100.00;102039.88;5009593;28;20652;-69
2023/05/05 03:48:11;;;;;;;6.33;2.77;;;;;;;8.80;100.00;102043.09;5006352;28;20190;-70
2023/05/05 03:50:39;;;;;;;9.70;3.40;;;;;;;8.81;100.00;102039.72;5010350;28;20209;-69
2023/05/05 03:53:05;;;;;;;6.20;2.40;;;;;;;8.81;100.00;102040.56;5003877;28;20206;-68
2023/05/05 03:55:31;;;;;;;8.47;3.13;;;;;;;8.82;100.00;102038.91;5006790;28;20649;-69
2023/05/05 03:57:56;;;;;;;6.20;2.90;;;;;;;8.83;100.00;102030.44;5006697;28;20712;-71
2023/05/05 04:00:22;;;;;;;5.57;2.97;;;;;;;8.84;100.00;102030.50;5021582;28;20218;-70
2023/05/05 04:02:47;;;;;;;5.73;2.97;;;;;;;8.85;100.00;102023.72;5012040;28;20199;-70
2023/05/05 04:05:16;;;;;;;7.13;3.20;;;;;;;8.82;100.00;102021.03;5011762;28;20209;-70
2023/05/05 04:07:42;;;;;;;6.07;3.13;;;;;;;8.86;100.00;102020.38;5008199;28;20191;-70
2023/05/05 04:10:07;;;;;;;7.87;2.97;;;;;;;8.85;100.00;102016.94;5014679;28;20262;-70
2023/05/05 04:12:33;;;;;;;8.67;3.47;;;;;;;8.88;100.00;102013.63;5018355;28;20199;-70
2023/05/05 04:14:59;;;;;;;9.60;4.10;;;;;;;8.89;100.00;102011.16;5014131;28;20192;-70
2023/05/05 04:17:24;;;;;;;5.77;3.17;;;;;;;8.89;100.00;102015.41;5021058;28;20211;-69
2023/05/05 04:19:50;;;;;;;6.07;3.37;;;;;;;8.91;100.00;102003.56;5010473;28;20232;-70
2023/05/05 04:22:16;;;;;;;8.87;3.27;;;;;;;8.91;100.00;102008.69;5022569;28;20228;-70
2023/05/05 04:24:41;;;;;;;8.83;3.80;;;;;;;8.91;100.00;102001.91;5009098;28;20672;-70
2023/05/05 04:27:07;;;;;;;14.23;3.83;;;;;;;8.92;100.00;101995.09;5022544;28;20561;-70
2023/05/05 04:29:33;;;;;;;8.27;4.27;;;;;;;8.94;100.00;102002.00;5012529;28;20275;-70
2023/05/05 04:31:59;;;;;;;11.23;3.93;;;;;;;8.96;100.00;101992.75;5013223;28;20190;-70
2023/05/05 04:34:26;;;;;;;13.60;3.93;;;;;;;8.96;100.00;101994.44;5022418;28;20675;-69
2023/05/05 04:36:51;;;;;;;11.10;4.53;;;;;;;9.00;100.00;101998.88;5023801;28;20210;-69
2023/05/05 04:39:17;;;;;;;8.53;4.37;;;;;;;9.01;100.00;101995.50;5007794;28;20194;-69
2023/05/05 04:41:43;;;;;;;8.97;3.93;;;;;;;9.01;100.00;102005.72;5012535;28;20217;-70
2023/05/05 04:44:08;;;;;;;8.30;4.10;;;;;;;9.02;100.00;102012.56;5023760;28;20202;-69
2023/05/05 04:46:34;;;;;;;9.73;3.93;;;;;;;9.06;100.00;102005.13;5011400;28;20214;-69
2023/05/05 04:49:00;;;;;;;10.73;4.40;;;;;;;9.11;100.00;102005.31;5008881;28;20202;-68
2023/05/05 04:51:26;;;;;;;8.87;4.40;;;;;;;9.15;100.00;101999.53;5008651;28;20207;-68
2023/05/05 04:53:52;;;;;;;8.87;4.50;;;;;;;9.20;100.00;102001.47;5011117;28;20656;-70
2023/05/05 04:56:17;;;;;;;12.73;4.27;;;;;;;9.28;100.00;102004.38;5011661;28;20276;-70
2023/05/05 04:58:43;;;;;;;8.57;4.20;;;;;;;9.30;100.00;102011.28;5012702;28;20190;-70
2023/05/05 05:01:08;;;;;;;9.27;4.67;;;;;;;9.30;100.00;102006.19;5004468;28;20281;-70
2023/05/05 05:03:35;;;;;;;10.23;5.00;;;;;;;9.36;100.00;102011.53;5013450;28;20727;-69
2023/05/05 05:06:01;;;;;;;11.27;4.97;;;;;;;9.47;100.00;102020.56;5022921;28;20285;-69
2023/05/05 05:08:26;;;;;;;11.70;4.93;;;;;;;9.54;100.00;102016.59;5021552;28;20309;-69
2023/05/05 05:10:51;;;;;;;9.80;4.60;;;;;;;9.60;100.00;102010.03;5027481;28;20325;-69
2023/05/05 05:13:17;;;;;;;11.10;5.17;;;;;;;9.56;100.00;102015.84;5019515;28;20281;-69
2023/05/05 05:15:42;;;;;;;10.27;4.73;;;;;;;9.68;100.00;102013.78;5023228;28;20651;-69
2023/05/05 05:18:08;;;;;;;15.07;5.30;;;;;;;9.67;100.00;102000.94;5024589;28;20630;-70
2023/05/05 05:20:33;;;;;;;11.83;4.97;;;;;;;9.71;100.00;101996.00;5009756;28;20211;-69
2023/05/05 05:23:01;;;;;;;9.83;4.83;;;;;;;9.84;100.00;101984.59;5008208;28;20214;-70
2023/05/05 05:25:27;;;;;;;10.80;4.60;;;;;;;9.86;100.00;101999.19;5009804;28;20186;-69
2023/05/05 05:27:53;;;;;;;9.20;4.70;;;;;;;9.98;100.00;101996.25;5008545;28;20209;-69
2023/05/05 05:30:19;;;;;;;11.20;5.10;;;;;;;10.16;100.00;102003.03;5011838;28;20891;-69
2023/05/05 05:32:45;;;;;;;7.77;4.23;;;;;;;10.35;100.00;101992.69;5005990;28;20213;-70
2023/05/05 05:35:10;;;;;;;9.13;5.13;;;;;;;10.45;100.00;101984.53;5016945;28;20285;-69
2023/05/05 05:37:36;;;;;;;13.37;4.80;;;;;;;10.42;100.00;101988.66;5013514;28;20246;-69
2023/05/05 05:40:06;;;;;;;10.37;4.80;;;;;;;10.27;100.00;101998.31;5005171;28;20214;-70
2023/05/05 05:42:33;;;;;;;10.40;4.93;;;;;;;10.32;100.00;102007.91;5023226;28;20609;-69
2023/05/05 05:44:58;;;;;;;9.43;5.23;;;;;;;10.48;100.00;101997.47;5021823;28;20183;-69
2023/05/05 05:47:25;;;;;;;9.90;4.50;;;;;;;10.78;100.00;101983.22;5017151;28;20198;-69
2023/05/05 05:49:50;;;;;;;9.47;4.47;;;;;;;10.82;100.00;101990.22;5018547;28;21996;-70
2023/05/05 05:52:17;;;;;;;8.33;4.67;;;;;;;10.80;100.00;101996.97;5002138;28;20210;-70
2023/05/05 05:54:42;;;;;;;11.60;5.00;;;;;;;10.99;100.00;102009.63;5022977;28;20187;-70
2023/05/05 05:57:09;;;;;;;10.20;5.70;;;;;;;10.92;100.00;102011.94;5019301;28;20499;-69
2023/05/05 05:59:35;;;;;;;14.40;6.10;;;;;;;10.93;100.00;102027.34;5009244;28;20739;-70
2023/05/05 06:02:00;;;;;;;9.60;4.50;;;;;;;11.34;100.00;102011.75;5022142;28;20198;-70
2023/05/05 06:04:26;;;;;;;10.90;4.67;;;;;;;11.43;100.00;101981.28;5025975;28;20194;-69
2023/05/05 06:06:52;;;;;;;10.13;5.10;;;;;;;11.58;100.00;101958.75;5008600;28;20213;-69
2023/05/05 06:09:18;;;;;;;11.80;4.63;;;;;;;11.79;100.00;101938.94;5006245;28;20667;-69
2023/05/05 06:11:43;;;;;;;9.97;5.37;;;;;;;11.73;100.00;101918.22;5007855;28;20213;-69
2023/05/05 06:14:09;;;;;;;12.30;5.90;;;;;;;11.97;100.00;101924.13;5023643;28;20205;-70
2023/05/05 06:16:35;;;;;;;9.70;5.07;;;;;;;12.13;100.00;101881.81;5005874;28;20207;-70
2023/05/05 06:19:08;;;;;;;9.07;4.87;;;;;;;12.26;100.00;101869.34;5015681;28;20190;-69
2023/05/05 06:21:37;;;;;;;8.20;4.80;;;;;;;12.40;100.00;101847.50;5017251;28;20264;-69
2023/05/05 06:24:03;;;;;;;11.43;4.50;;;;;;;12.76;100.00;101863.94;5010087;28;20190;-69
2023/05/05 06:26:30;;;;;;;8.13;4.97;;;;;;;12.73;100.00;101816.72;5017784;28;20190;-69
2023/05/05 06:28:55;;;;;;;8.20;4.30;;;;;;;12.62;100.00;101810.41;5020669;28;20595;-69
2023/05/05 06:31:21;;;;;;;9.93;4.50;;;;;;;12.68;100.00;101850.00;5016654;28;20221;-70
2023/05/05 06:33:47;;;;;;;9.13;5.10;;;;;;;12.33;100.00;101849.84;5023857;28;20194;-70
2023/05/05 06:36:12;;;;;;;9.20;5.27;;;;;;;12.38;100.00;101864.59;5023709;28;20222;-67
2023/05/05 06:38:37;;;;;;;9.00;4.67;;;;;;;12.48;100.00;101838.31;5024867;28;20204;-69
2023/05/05 06:41:03;;;;;;;8.43;4.30;;;;;;;12.69;100.00;101823.50;5027851;28;20249;-69
2023/05/05 06:43:28;;;;;;;10.67;4.50;;;;;;;12.77;100.00;101824.53;5023642;28;20654;-70
2023/05/05 06:45:58;;;;;;;10.87;4.87;;;;;;;12.89;100.00;101808.56;5010602;28;20186;-69
2023/05/05 06:48:23;;;;;;;9.47;5.47;;;;;;;12.95;100.00;101776.16;5009069;28;20212;-69
2023/05/05 06:50:48;;;;;;;10.90;4.83;;;;;;;13.16;100.00;101751.84;4995101;28;20214;-70
2023/05/05 06:53:14;;;;;;;8.23;4.60;;;;;;;13.29;100.00;101736.72;4997389;28;20261;-70
2023/05/05 06:55:43;;;;;;;9.27;4.33;;;;;;;13.24;100.00;101734.88;5012931;28;20577;-69
2023/05/05 06:58:09;;;;;;;9.33;5.10;;;;;;;13.51;100.00;101738.06;5019174;28;20199;-69
2023/05/05 07:00:34;;;;;;;8.67;4.60;;;;;;;13.44;100.00;101724.19;5007804;28;20210;-69
2023/05/05 07:02:59;;;;;;;9.90;4.97;;;;;;;13.69;100.00;101729.06;5006045;28;20198;-69
2023/05/05 07:05:25;;;;;;;8.53;5.40;;;;;;;13.78;100.00;101702.63;5022164;28;20244;-70
2023/05/05 07:07:54;;;;;;;10.13;4.83;;;;;;;13.85;100.00;101686.47;5023030;28;20190;-69
2023/05/05 07:10:21;;;;;;;10.23;4.80;;;;;;;14.21;100.00;101657.13;5016860;28;20222;-70
2023/05/05 07:12:47;;;;;;;9.40;4.73;;;;;;;14.30;100.00;101623.81;5020988;28;20198;-70
2023/05/05 07:15:13;;;;;;;8.57;4.93;;;;;;;14.48;100.00;101620.66;5023048;28;20245;-68
2023/05/05 07:17:38;;;;;;;9.47;4.53;;;;;;;14.66;100.00;101570.25;5018959;28;20999;-70
2023/05/05 07:20:04;;;;;;;9.20;4.87;;;;;;;14.84;100.00;101544.75;5000888;28;21164;-70
2023/05/05 07:22:30;;;;;;;8.97;4.60;;;;;;;15.04;100.00;101520.06;5009037;28;20260;-70
2023/05/05 07:24:55;;;;;;;8.57;4.17;;;;;;;14.58;100.00;101556.38;5008119;28;20195;-69
2023/05/05 07:27:21;;;;;;;9.37;4.97;;;;;;;14.68;100.00;101559.97;5022828;28;20253;-69
2023/05/05 07:29:47;;;;;;;9.47;4.97;;;;;;;15.14;100.00;101537.38;5019196;28;20209;-69
2023/05/05 07:32:12;;;;;;;11.03;4.60;;;;;;;15.02;100.00;101546.69;5027555;28;20202;-69
2023/05/05 07:34:39;;;;;;;10.10;4.57;;;;;;;14.73;100.00;101615.06;5016669;28;20225;-71
2023/05/05 07:37:05;;;;;;;8.97;4.67;;;;;;;14.43;100.00;101627.44;5027418;28;20226;-69
2023/05/05 07:39:34;;;;;;;11.27;4.97;;;;;;;14.53;100.00;101666.28;5021394;28;20699;-69
2023/05/05 07:42:00;;;;;;;9.83;5.23;;;;;;;14.43;100.00;101668.69;5023167;28;20195;-69
2023/05/05 07:44:26;;;;;;;9.20;5.40;;;;;;;14.50;100.00;101684.28;5017154;28;20256;-69
2023/05/05 07:46:51;;;;;;;9.17;5.13;;;;;;;14.57;100.00;101670.66;5019837;28;20190;-69
2023/05/05 07:49:17;;;;;;;7.37;5.10;;;;;;;14.71;100.00;101679.47;5018050;28;20210;-69
2023/05/05 07:51:42;;;;;;;8.63;5.40;;;;;;;14.48;100.00;101652.47;5019292;28;20222;-69
2023/05/05 07:54:08;;;;;;;8.67;5.13;;;;;;;14.41;100.00;101668.66;5019912;28;20195;-69
2023/05/05 07:56:33;;;;;;;9.60;5.23;;;;;;;14.38;100.00;101690.94;5010517;28;20227;-69
2023/05/05 07:58:59;;;;;;;11.67;5.10;;;;;;;14.38;100.00;101701.22;5007384;28;20197;-69
2023/05/05 08:01:24;;;;;;;10.90;4.97;;;;;;;14.57;100.00;101717.06;5018731;28;20218;-68
2023/05/05 08:03:50;;;;;;;11.93;5.50;;;;;;;14.54;100.00;101717.00;5019506;28;20230;-69
2023/05/05 08:06:20;;;;;;;8.70;4.80;;;;;;;14.58;100.00;101718.78;5025104;28;20194;-69
2023/05/05 08:08:46;;;;;;;9.57;5.13;;;;;;;14.73;100.00;101697.56;5026121;28;20190;-69
2023/05/05 08:11:11;;;;;;;8.17;5.20;;;;;;;14.82;100.00;101695.13;5014551;28;20656;-69
2023/05/05 08:13:38;;;;;;;9.20;5.63;;;;;;;15.04;100.00;101674.84;5017959;28;20217;-70
2023/05/05 08:16:03;;;;;;;9.37;5.07;;;;;;;15.11;100.00;101653.41;5025347;28;20768;-69
2023/05/05 08:18:29;;;;;;;9.10;5.10;;;;;;;15.17;100.00;101640.63;5022049;28;20194;-69
2023/05/05 08:20:54;;;;;;;10.07;5.30;;;;;;;15.07;100.00;101640.47;5019814;28;20590;-69
2023/05/05 08:23:20;;;;;;;10.57;5.57;;;;;;;14.99;100.00;101650.69;5022397;28;20780;-69
2023/05/05 08:25:45;;;;;;;9.73;5.53;;;;;;;14.92;100.00;101666.06;5022740;28;20186;-69
2023/05/05 08:28:11;;;;;;;10.77;5.33;;;;;;;14.88;100.00;101679.75;5026920;28;20213;-70
2023/05/05 08:30:36;;;;;;;9.47;5.43;;;;;;;15.37;100.00;101697.72;5027468;28;20214;-70
2023/05/05 08:33:02;;;;;;;7.47;4.20;;;;;;;15.71;100.00;101658.56;5024775;28;20202;-68
2023/05/05 08:35:27;;;;;;;7.23;4.40;;;;;;;15.94;100.00;101641.59;5021745;28;20194;-68
2023/05/05 08:37:52;;;;;;;9.20;5.00;;;;;;;15.87;99.46;101624.28;5030610;28;20230;-69
2023/05/05 08:40:19;;;;;;;8.47;4.60;;;;;;;16.11;98.94;101624.53;5025772;28;20228;-69
2023/05/05 08:42:45;;;;;;;7.53;4.67;;;;;;;16.37;92.21;101561.88;5004074;28;20206;-68
2023/05/05 08:45:10;;;;;;;8.47;4.87;;;;;;;16.56;91.67;101557.72;5028317;28;20897;-69
2023/05/05 08:47:37;;;;;;;9.03;4.53;;;;;;;16.76;87.72;101525.09;5025763;28;20191;-69
2023/05/05 08:50:04;;;;;;;12.57;6.00;;;;;;;16.73;87.45;101531.13;5029127;28;20222;-69
2023/05/05 08:52:37;;;;;;;10.83;5.40;;;;;;;16.67;89.05;101535.38;5028034;28;20195;-69
2023/05/05 08:55:15;;;;;;;13.53;7.23;;;;;;;16.83;91.50;101557.88;5025358;28;20655;-69
2023/05/05 08:57:53;;;;;;;13.77;5.93;;;;;;;16.67;84.80;101525.03;5026437;28;20222;-69
2023/05/05 09:00:19;;;;;;;9.90;5.20;;;;;;;16.52;87.94;101551.66;5027067;28;20586;-69
2023/05/05 09:02:45;;;;;;;9.43;5.10;;;;;;;16.81;85.95;101534.59;5024623;28;20218;-69
2023/05/05 09:05:11;;;;;;;8.17;5.03;;;;;;;17.32;84.69;101523.59;5028781;28;20190;-69
2023/05/05 09:07:37;;;;;;;8.47;4.70;;;;;;;17.66;72.88;101463.25;5025871;28;20221;-69
2023/05/05 09:10:04;;;;;;;7.47;4.40;;;;;;;18.35;72.50;101471.88;5025744;28;20853;-67
2023/05/05 09:12:30;;;;;;;9.60;4.57;;;;;;;18.27;70.05;101470.13;5029442;28;20202;-69
2023/05/05 09:14:56;;;;;;;10.33;4.70;;;;;;;18.52;68.91;101464.06;5011540;28;20201;-69
2023/05/05 09:17:25;;;;;;;9.90;4.87;;;;;;;18.65;67.37;101460.56;5024368;28;20214;-69
2023/05/05 09:20:01;;;;;;;8.80;4.67;;;;;;;18.48;70.03;101477.91;5020642;28;20254;-68
2023/05/05 09:22:36;;;;;;;7.77;4.73;;;;;;;18.10;69.30;101485.69;5019674;28;20617;-69
2023/05/05 09:25:03;;;;;;;10.27;4.50;;;;;;;18.02;71.70;101513.38;5026538;28;20194;-68
2023/05/05 09:27:28;;;;;;;7.97;4.60;;;;;;;17.81;67.71;101487.44;5025519;28;20186;-69
2023/05/05 09:29:55;;;;;;;7.90;4.53;;;;;;;18.56;64.65;101477.00;5026300;28;20218;-68
2023/05/05 09:32:21;;;;;;;6.27;4.60;;;;;;;19.03;60.58;101458.66;5025330;28;20198;-68
2023/05/05 09:35:00;;;;;;;8.57;4.27;;;;;;;19.28;57.41;101461.13;5018788;28;20197;-69
2023/05/05 09:37:27;;;;;;;6.83;4.57;;;;;;;19.45;56.27;101467.09;5004871;28;20241;-68
2023/05/05 09:39:54;;;;;;;8.00;4.17;;;;;;;20.12;54.64;101489.09;5022364;28;20214;-68
2023/05/05 09:42:19;;;;;;;10.93;4.50;;;;;;;20.70;53.21;101500.66;5026092;28;20209;-68
2023/05/05 09:44:45;;;;;;;11.43;4.57;;;;;;;19.84;54.71;101568.19;5009600;28;20198;-68
2023/05/05 09:47:10;;;;;;;10.77;4.27;;;;;;;19.98;54.31;101560.25;5026180;28;20189;-68
2023/05/05 09:49:37;;;;;;;7.00;4.27;;;;;;;20.06;53.81;101558.47;5026606;28;20221;-68
2023/05/05 09:52:15;;;;;;;7.83;4.70;;;;;;;19.98;54.46;101565.47;5011485;28;20202;-69
2023/05/05 09:54:42;;;;;;;9.57;4.30;;;;;;;19.92;55.15;101566.41;5004864;28;20194;-69
2023/05/05 09:57:24;;;;;;;8.20;4.47;;;;;;;19.64;55.01;101588.25;5024816;28;20218;-68
2023/05/05 09:59:58;;;;;;;10.93;4.30;;;;;;;19.32;55.14;101584.94;5021538;28;20715;-70
2023/05/05 10:02:34;;;;;;;7.30;4.27;;;;;;;19.05;56.22;101616.16;5026816;28;20198;-70
2023/05/05 10:05:06;;;;;;;9.17;4.43;;;;;;;18.63;54.29;101585.09;5025844;28;20264;-70
2023/05/05 10:07:32;;;;;;;9.43;4.80;;;;;;;18.40;56.17;101610.19;5018347;28;20194;-70
2023/05/05 10:09:58;;;;;;;13.07;4.63;;;;;;;18.27;59.09;101629.19;5024766;28;20234;-70
2023/05/05 10:12:24;;;;;;;10.53;4.50;;;;;;;18.35;59.59;101652.56;5023856;28;20236;-71
2023/05/05 10:14:54;;;;;;;16.70;5.97;;;;;;;18.39;58.60;101625.75;5021191;28;20225;-68
2023/05/05 10:17:22;;;;;;;9.10;4.30;;;;;;;18.38;57.52;101603.28;5027661;28;20218;-69
2023/05/05 10:19:53;;;;;;;11.07;4.83;;;;;;;18.62;60.01;101637.00;5028470;28;20288;-70
2023/05/05 10:22:22;;;;;;;11.87;5.23;;;;;;;18.53;61.42;101645.66;5026866;28;20214;-71
2023/05/05 10:25:02;;;;;;;9.03;4.57;;;;;;;18.52;61.16;101643.91;5020924;28;20251;-70
2023/05/05 10:27:31;;;;;;;6.43;4.50;;;;;;;18.20;63.16;101655.94;5006395;28;20202;-71
2023/05/05 10:30:05;;;;;;;8.47;4.17;;;;;;;18.47;65.10;101675.91;5012051;28;20249;-71
2023/05/05 10:32:38;;;;;;;6.00;4.00;;;;;;;18.27;65.68;101672.38;5019465;28;20202;-71
2023/05/05 10:35:07;;;;;;;10.90;4.63;;;;;;;18.06;65.59;101675.81;5027581;28;20208;-70
2023/05/05 10:37:36;;;;;;;9.93;4.47;;;;;;;18.03;66.07;101681.00;5021378;28;20214;-71
2023/05/05 10:40:02;;;;;;;9.13;4.70;;;;;;;18.02;69.43;101706.91;5020566;28;20218;-70
2023/05/05 10:42:28;;;;;;;9.70;4.53;;;;;;;18.00;66.55;101682.72;5024706;28;20639;-70
2023/05/05 10:44:54;;;;;;;6.90;4.53;;;;;;;18.02;68.24;101696.53;5025282;28;20198;-70
2023/05/05 10:47:21;;;;;;;9.53;4.30;;;;;;;17.72;69.14;101699.00;5026710;28;20281;-70
2023/05/05 10:50:12;;;;;;;6.73;4.17;;;;;;;17.71;69.81;101692.09;4999452;28;20203;-70
2023/05/05 10:52:50;;;;;;;7.60;4.20;;;;;;;17.76;71.25;101704.22;5020510;28;20245;-70
2023/05/05 10:55:20;;;;;;;7.17;4.53;;;;;;;17.68;69.79;101710.25;5022554;28;20193;-70
2023/05/05 10:57:51;;;;;;;9.67;4.10;;;;;;;17.83;69.79;101697.34;5028364;28;20218;-70
2023/05/05 11:00:39;;;;;;;10.23;4.53;;;;;;;17.69;69.95;101699.88;5010416;28;20245;-71
2023/05/05 11:03:17;;;;;;;7.53;3.90;;;;;;;17.58;70.08;101705.84;5015418;28;20218;-70
2023/05/05 11:06:01;;;;;;;8.70;4.40;;;;;;;17.50;71.40;101704.97;5024524;28;20202;-71
2023/05/05 11:08:26;;;;;;;8.07;4.50;;;;;;;17.47;70.61;101697.19;5018330;28;20194;-70
2023/05/05 11:10:52;;;;;;;9.80;4.53;;;;;;;17.49;70.74;101708.41;5023993;28;20569;-71
2023/05/05 11:13:18;;;;;;;7.30;4.50;;;;;;;17.55;72.12;101709.31;5023888;28;20198;-71
2023/05/05 11:15:44;;;;;;;8.90;4.53;;;;;;;17.65;73.43;101715.41;5024838;28;20647;-70
2023/05/05 11:18:30;;;;;;;7.70;4.67;;;;;;;17.54;74.78;101714.50;5025682;28;20197;-71
2023/05/05 11:20:58;;;;;;;9.37;4.23;;;;;;;17.50;74.27;101705.81;5020413;28;20285;-70
2023/05/05 11:23:25;;;;;;;12.90;4.67;;;;;;;17.44;72.58;101703.22;5025821;28;20198;-70
2023/05/05 11:25:51;;;;;;;7.97;4.50;;;;;;;17.37;73.42;101711.75;5022843;28;20195;-69
2023/05/05 11:28:23;;;;;;;8.37;4.17;;;;;;;17.35;74.38;101715.19;5024487;28;20248;-70